Time;durP1;ratioP1;P1;durP2;ratioP2;P2;SDS_P1;SDS_P2;PMS_P1;PMS_P2;Temp;Humidity;BMP_temperature;BMP_pressure;BME280_temperature;BME280_humidity;BME280_pressure;Samples;Min_cycle;Max_cycle;Signal;HPM_P1;HPM_P2
2024/03/21 00:00:50;;;;;;;22.37;13.73;;;;;;;;;;778390;177;923943;-69
2024/03/21 00:03:15;;;;;;;24.73;12.93;;;;;;;;;;774553;178;896246;-70
2024/03/21 00:05:41;;;;;;;19.10;12.17;;;;;;;;;;770445;180;985214;-69
2024/03/21 00:08:06;;;;;;;27.27;12.70;;;;;;;;;;774942;180;918669;-70
2024/03/21 00:10:32;;;;;;;28.20;14.97;;;;;;;;;;775560;180;786112;-69
2024/03/21 00:12:58;;;;;;;26.60;14.83;;;;;;;;;;776607;177;816333;-69
2024/03/21 00:15:24;;;;;;;28.52;16.58;;;;;;;;;;778206;181;909205;-70
2024/03/21 00:17:50;;;;;;;28.20;16.83;;;;;;;;;;767495;181;920591;-69
2024/03/21 00:20:16;;;;;;;28.50;16.50;;;;;;;;;;773862;180;872835;-71
2024/03/21 00:22:41;;;;;;;26.73;15.10;;;;;;;;;;761997;181;859989;-70
2024/03/21 00:25:08;;;;;;;36.42;18.37;;;;;;;;;;773146;181;895618;-69
2024/03/21 00:27:33;;;;;;;31.33;17.57;;;;;;;;;;766691;180;916559;-69
2024/03/21 00:29:59;;;;;;;30.77;16.30;;;;;;;;;;765704;180;919058;-70
2024/03/21 00:32:25;;;;;;;30.57;17.77;;;;;;;;;;774299;180;1125048;-69
2024/03/21 00:34:51;;;;;;;27.03;15.90;;;;;;;;;;776665;177;915955;-69
2024/03/21 00:37:17;;;;;;;30.90;15.33;;;;;;;;;;776989;177;918979;-70
2024/03/21 00:39:45;;;;;;;22.92;15.63;;;;;;;;;;768583;181;918806;-66
2024/03/21 00:42:09;;;;;;;25.43;14.17;;;;;;;;;;751853;184;867857;-67
2024/03/21 00:44:34;;;;;;;26.70;15.17;;;;;;;;;;741010;188;920165;-67
2024/03/21 00:47:00;;;;;;;27.80;16.60;;;;;;;;;;746394;185;816685;-69
2024/03/21 00:49:26;;;;;;;29.10;15.90;;;;;;;;;;730954;188;919803;-67
2024/03/21 00:51:52;;;;;;;31.50;16.80;;;;;;;;;;756378;181;918728;-70
2024/03/21 00:54:17;;;;;;;27.67;15.70;;;;;;;;;;757091;184;914571;-70
2024/03/21 00:56:43;;;;;;;29.50;17.97;;;;;;;;;;754313;181;822071;-68
2024/03/21 00:59:09;;;;;;;36.33;17.93;;;;;;;;;;768636;177;921615;-66
2024/03/21 01:01:35;;;;;;;31.30;18.17;;;;;;;;;;775813;177;912148;-68
2024/03/21 01:04:01;;;;;;;38.33;17.73;;;;;;;;;;779607;177;916856;-68
2024/03/21 01:06:27;;;;;;;29.67;17.45;;;;;;;;;;774040;180;919039;-68
2024/03/21 01:08:53;;;;;;;32.78;19.60;;;;;;;;;;772562;177;921525;-67
2024/03/21 01:11:19;;;;;;;36.00;17.70;;;;;;;;;;779214;180;913389;-70
2024/03/21 01:13:44;;;;;;;32.53;17.73;;;;;;;;;;774590;181;919752;-66
2024/03/21 01:16:11;;;;;;;34.63;17.67;;;;;;;;;;773881;177;820145;-68
2024/03/21 01:18:36;;;;;;;30.00;16.00;;;;;;;;;;781832;177;815343;-70
2024/03/21 01:21:02;;;;;;;30.43;17.30;;;;;;;;;;773963;177;903130;-69
2024/03/21 01:23:28;;;;;;;29.10;14.60;;;;;;;;;;770817;178;920709;-69
2024/03/21 01:25:54;;;;;;;38.22;16.60;;;;;;;;;;779284;178;915732;-66
2024/03/21 01:28:20;;;;;;;26.70;16.83;;;;;;;;;;769274;181;816575;-66
2024/03/21 01:30:46;;;;;;;28.47;16.53;;;;;;;;;;771883;180;902829;-65
2024/03/21 01:33:12;;;;;;;24.90;15.38;;;;;;;;;;772150;180;917768;-69
2024/03/21 01:35:37;;;;;;;21.93;13.70;;;;;;;;;;780809;181;749414;-70
2024/03/21 01:38:04;;;;;;;24.75;14.63;;;;;;;;;;774375;181;917369;-70
2024/03/21 01:40:30;;;;;;;26.37;15.65;;;;;;;;;;775719;178;917934;-69
2024/03/21 01:42:55;;;;;;;25.47;13.43;;;;;;;;;;783782;177;772492;-69
2024/03/21 01:45:21;;;;;;;25.00;15.67;;;;;;;;;;773952;177;918562;-70
2024/03/21 01:47:47;;;;;;;31.20;17.77;;;;;;;;;;775393;177;915488;-69
2024/03/21 01:50:12;;;;;;;24.90;15.27;;;;;;;;;;779278;177;890767;-69
2024/03/21 01:52:38;;;;;;;28.93;14.40;;;;;;;;;;775032;180;963277;-69
2024/03/21 01:55:04;;;;;;;29.15;16.27;;;;;;;;;;775192;178;916644;-69
2024/03/21 01:57:30;;;;;;;28.90;17.50;;;;;;;;;;780897;179;917387;-69
2024/03/21 01:59:58;;;;;;;29.00;14.80;;;;;;;;;;775511;180;819681;-68
2024/03/21 02:02:22;;;;;;;28.00;16.47;;;;;;;;;;771185;180;919477;-67
2024/03/21 02:04:48;;;;;;;30.47;16.67;;;;;;;;;;771664;180;918662;-68
2024/03/21 02:07:16;;;;;;;32.60;15.90;;;;;;;;;;767961;181;857623;-68
2024/03/21 02:09:39;;;;;;;31.33;15.27;;;;;;;;;;771810;177;919398;-69
2024/03/21 02:12:07;;;;;;;29.87;17.95;;;;;;;;;;771788;177;918795;-68
2024/03/21 02:14:34;;;;;;;29.57;17.27;;;;;;;;;;775446;180;917504;-68
2024/03/21 02:17:00;;;;;;;31.40;16.47;;;;;;;;;;773689;178;841013;-69
2024/03/21 02:19:26;;;;;;;27.27;16.83;;;;;;;;;;771100;181;920317;-66
2024/03/21 02:24:23;;;;;;;24.50;14.40;;;;;;;;;;776553;178;899302;-65
2024/03/21 02:26:49;;;;;;;26.97;15.60;;;;;;;;;;774625;179;920192;-66
2024/03/21 02:29:15;;;;;;;21.20;14.50;;;;;;;;;;774480;177;916641;-65
2024/03/21 02:31:41;;;;;;;26.40;13.67;;;;;;;;;;771946;181;818891;-65
2024/03/21 02:34:07;;;;;;;21.87;12.83;;;;;;;;;;773251;180;873124;-66
2024/03/21 02:36:33;;;;;;;26.58;16.02;;;;;;;;;;776946;178;819308;-67
2024/03/21 02:38:58;;;;;;;29.83;16.17;;;;;;;;;;776139;178;918766;-66
2024/03/21 02:41:24;;;;;;;22.20;13.57;;;;;;;;;;774783;181;856235;-69
2024/03/21 02:43:50;;;;;;;27.40;14.80;;;;;;;;;;773863;181;916849;-70
2024/03/21 02:46:16;;;;;;;31.67;16.60;;;;;;;;;;780056;178;818579;-66
2024/03/21 02:48:43;;;;;;;23.07;14.70;;;;;;;;;;772810;180;852792;-67
2024/03/21 02:51:08;;;;;;;21.83;13.43;;;;;;;;;;778026;177;813000;-67
2024/03/21 02:53:34;;;;;;;25.35;13.62;;;;;;;;;;782053;177;917261;-67
2024/03/21 02:56:00;;;;;;;24.37;14.73;;;;;;;;;;774128;180;879259;-66
2024/03/21 02:58:27;;;;;;;28.38;16.10;;;;;;;;;;775982;177;892152;-67
2024/03/21 03:00:52;;;;;;;23.03;13.57;;;;;;;;;;777718;178;816026;-66
2024/03/21 03:03:18;;;;;;;23.27;14.67;;;;;;;;;;777919;177;918716;-66
2024/03/21 03:05:44;;;;;;;25.03;14.87;;;;;;;;;;772614;180;918470;-70
2024/03/21 03:08:09;;;;;;;23.97;14.43;;;;;;;;;;776146;179;920102;-68
2024/03/21 03:10:36;;;;;;;32.17;16.00;;;;;;;;;;779676;180;918961;-66
2024/03/21 03:13:02;;;;;;;34.20;15.73;;;;;;;;;;772598;180;825568;-66
2024/03/21 03:15:28;;;;;;;26.17;16.40;;;;;;;;;;774672;180;918141;-66
2024/03/21 03:17:54;;;;;;;29.00;16.90;;;;;;;;;;780652;177;927064;-66
2024/03/21 03:20:20;;;;;;;26.70;17.30;;;;;;;;;;776546;180;918681;-69
2024/03/21 03:22:45;;;;;;;29.53;17.10;;;;;;;;;;772825;180;918595;-66
2024/03/21 03:25:12;;;;;;;36.53;16.55;;;;;;;;;;780043;180;917759;-69
2024/03/21 03:27:38;;;;;;;29.93;17.00;;;;;;;;;;772169;180;917954;-71
2024/03/21 03:30:04;;;;;;;29.30;14.90;;;;;;;;;;772006;177;917969;-70
2024/03/21 03:32:32;;;;;;;25.93;15.50;;;;;;;;;;773559;180;918514;-67
2024/03/21 03:37:27;;;;;;;23.50;12.97;;;;;;;;;;775981;178;859296;-71
2024/03/21 03:39:53;;;;;;;26.47;14.27;;;;;;;;;;773341;177;816598;-70
2024/03/21 03:42:20;;;;;;;23.25;12.93;;;;;;;;;;780877;178;817551;-67
2024/03/21 03:44:45;;;;;;;28.80;15.40;;;;;;;;;;770165;177;912606;-70
2024/03/21 03:47:11;;;;;;;28.60;14.13;;;;;;;;;;772654;177;918609;-71
2024/03/21 03:49:36;;;;;;;31.17;16.75;;;;;;;;;;771791;180;892783;-69
2024/03/21 03:52:02;;;;;;;27.00;15.50;;;;;;;;;;773157;178;919710;-71
2024/03/21 03:54:28;;;;;;;31.13;16.40;;;;;;;;;;774699;178;918847;-67
2024/03/21 03:56:54;;;;;;;39.90;18.47;;;;;;;;;;773373;180;918733;-67
2024/03/21 03:59:20;;;;;;;34.30;16.77;;;;;;;;;;779466;177;918779;-70
2024/03/21 04:01:47;;;;;;;25.13;15.23;;;;;;;;;;776014;178;817595;-71
2024/03/21 04:04:12;;;;;;;29.58;18.02;;;;;;;;;;776375;178;918312;-69
2024/03/21 04:06:39;;;;;;;30.83;17.43;;;;;;;;;;781310;180;818820;-71
2024/03/21 04:09:04;;;;;;;29.63;16.50;;;;;;;;;;772671;179;916008;-72
2024/03/21 04:11:29;;;;;;;30.05;16.75;;;;;;;;;;772166;177;917208;-68
2024/03/21 04:13:55;;;;;;;37.63;17.10;;;;;;;;;;777836;179;919836;-71
2024/03/21 04:16:21;;;;;;;39.30;16.97;;;;;;;;;;772312;180;917346;-71
2024/03/21 04:18:47;;;;;;;35.33;17.63;;;;;;;;;;774031;177;919555;-71
2024/03/21 04:21:12;;;;;;;28.10;17.05;;;;;;;;;;775342;179;853014;-71
2024/03/21 04:23:38;;;;;;;27.87;16.73;;;;;;;;;;774088;179;914369;-71
2024/03/21 04:26:04;;;;;;;32.10;17.53;;;;;;;;;;777887;177;817724;-69
2024/03/21 04:28:30;;;;;;;27.70;15.53;;;;;;;;;;772669;177;914977;-69
2024/03/21 04:30:56;;;;;;;27.27;16.13;;;;;;;;;;776947;177;919352;-68
2024/03/21 04:33:22;;;;;;;24.23;15.83;;;;;;;;;;770177;179;921394;-68
2024/03/21 04:35:49;;;;;;;24.13;15.73;;;;;;;;;;772314;179;919399;-68
2024/03/21 04:38:13;;;;;;;28.40;15.93;;;;;;;;;;780149;177;819990;-67
2024/03/21 04:40:39;;;;;;;36.63;16.77;;;;;;;;;;771915;178;918664;-73
2024/03/21 04:43:05;;;;;;;23.20;14.90;;;;;;;;;;774920;180;918481;-68
2024/03/21 04:45:31;;;;;;;32.93;16.87;;;;;;;;;;777909;178;917849;-68
2024/03/21 04:47:57;;;;;;;31.95;15.98;;;;;;;;;;774671;177;818354;-68
2024/03/21 04:50:23;;;;;;;31.80;16.87;;;;;;;;;;773967;178;816638;-70
2024/03/21 04:52:48;;;;;;;29.43;15.33;;;;;;;;;;778730;180;816736;-71
2024/03/21 04:55:14;;;;;;;28.50;17.47;;;;;;;;;;773370;179;919368;-67
2024/03/21 04:57:40;;;;;;;34.63;17.17;;;;;;;;;;771875;177;916383;-71
2024/03/21 05:00:10;;;;;;;32.70;18.23;;;;;;;;;;773983;178;927040;-71
2024/03/21 05:02:32;;;;;;;30.90;17.77;;;;;;;;;;776732;180;950396;-71
2024/03/21 05:04:58;;;;;;;28.63;18.03;;;;;;;;;;772586;177;915123;-69
2024/03/21 05:07:24;;;;;;;35.53;19.30;;;;;;;;;;771982;180;920832;-72
2024/03/21 05:09:50;;;;;;;27.00;16.50;;;;;;;;;;779060;180;816527;-69
2024/03/21 05:12:16;;;;;;;31.10;17.90;;;;;;;;;;775641;177;816696;-72
2024/03/21 05:14:41;;;;;;;35.83;18.23;;;;;;;;;;777024;177;813782;-68
2024/03/21 05:17:09;;;;;;;37.83;17.37;;;;;;;;;;778453;177;866966;-67
2024/03/21 05:19:33;;;;;;;23.87;15.80;;;;;;;;;;771232;179;917876;-68
2024/03/21 05:21:59;;;;;;;26.62;16.33;;;;;;;;;;774981;177;1017540;-71
2024/03/21 05:24:25;;;;;;;27.63;15.03;;;;;;;;;;772687;181;917489;-70
2024/03/21 05:26:51;;;;;;;27.83;15.13;;;;;;;;;;772574;178;942012;-71
2024/03/21 05:29:17;;;;;;;28.83;15.57;;;;;;;;;;775660;177;918460;-71
2024/03/21 05:31:42;;;;;;;24.97;15.03;;;;;;;;;;774060;178;923745;-70
2024/03/21 05:34:08;;;;;;;27.07;13.50;;;;;;;;;;779689;178;619825;-70
2024/03/21 05:36:34;;;;;;;26.40;16.33;;;;;;;;;;775193;177;625554;-72
2024/03/21 05:39:00;;;;;;;25.40;15.20;;;;;;;;;;777158;177;870348;-72
2024/03/21 05:41:26;;;;;;;28.97;16.27;;;;;;;;;;781366;179;817892;-70
2024/03/21 05:43:52;;;;;;;31.17;15.90;;;;;;;;;;778117;180;635019;-70
2024/03/21 05:46:18;;;;;;;28.17;15.83;;;;;;;;;;778526;177;631875;-70
2024/03/21 05:48:43;;;;;;;25.90;15.50;;;;;;;;;;781772;177;629255;-71
2024/03/21 05:51:09;;;;;;;28.00;15.37;;;;;;;;;;778676;177;630261;-71
2024/03/21 05:53:35;;;;;;;31.57;17.40;;;;;;;;;;778344;181;617091;-72
2024/03/21 05:56:04;;;;;;;42.03;16.70;;;;;;;;;;780736;178;619021;-69
2024/03/21 05:58:28;;;;;;;31.63;15.93;;;;;;;;;;778617;177;626707;-71
2024/03/21 06:01:03;;;;;;;29.50;17.37;;;;;;;;;;775757;179;653665;-70
2024/03/21 06:03:23;;;;;;;30.03;16.87;;;;;;;;;;773055;178;885749;-69
2024/03/21 06:05:49;;;;;;;28.65;17.23;;;;;;;;;;777907;178;874000;-69
2024/03/21 06:08:15;;;;;;;28.63;15.93;;;;;;;;;;772740;177;922425;-67
2024/03/21 06:10:41;;;;;;;33.20;18.07;;;;;;;;;;772879;178;919618;-67
2024/03/21 06:13:07;;;;;;;28.70;16.73;;;;;;;;;;775257;180;918767;-68
2024/03/21 06:15:33;;;;;;;35.47;18.57;;;;;;;;;;768017;181;919846;-68
2024/03/21 06:17:59;;;;;;;35.70;18.93;;;;;;;;;;775449;177;928976;-67
2024/03/21 06:20:25;;;;;;;32.43;19.30;;;;;;;;;;777566;178;919949;-68
2024/03/21 06:22:50;;;;;;;36.43;19.70;;;;;;;;;;771417;177;916966;-68
2024/03/21 06:25:16;;;;;;;29.73;16.03;;;;;;;;;;772932;180;918801;-68
2024/03/21 06:27:42;;;;;;;41.20;19.80;;;;;;;;;;779459;177;743005;-69
2024/03/21 06:30:08;;;;;;;32.93;18.67;;;;;;;;;;772119;180;920210;-71
2024/03/21 06:32:34;;;;;;;37.50;19.93;;;;;;;;;;770245;179;812842;-70
2024/03/21 06:35:00;;;;;;;30.40;20.43;;;;;;;;;;774647;177;849939;-71
2024/03/21 06:37:26;;;;;;;39.57;20.90;;;;;;;;;;779660;178;916317;-70
2024/03/21 06:39:52;;;;;;;43.20;22.43;;;;;;;;;;773123;180;920078;-69
2024/03/21 06:42:18;;;;;;;34.03;20.00;;;;;;;;;;775113;179;1158756;-70
2024/03/21 06:44:44;;;;;;;42.87;22.80;;;;;;;;;;780171;178;911663;-70
2024/03/21 06:47:09;;;;;;;54.20;31.87;;;;;;;;;;775443;179;897097;-70
2024/03/21 06:49:35;;;;;;;52.07;28.47;;;;;;;;;;772742;178;923482;-71
2024/03/21 06:52:01;;;;;;;40.50;20.57;;;;;;;;;;779137;179;795810;-70
2024/03/21 06:54:27;;;;;;;37.20;20.90;;;;;;;;;;775625;180;918061;-69
2024/03/21 06:56:53;;;;;;;39.75;19.85;;;;;;;;;;775705;178;813544;-68
2024/03/21 06:59:19;;;;;;;32.30;20.73;;;;;;;;;;778288;180;819453;-69
2024/03/21 07:01:44;;;;;;;41.23;21.30;;;;;;;;;;774136;177;817136;-69
2024/03/21 07:04:11;;;;;;;49.20;27.23;;;;;;;;;;775883;177;919787;-68
2024/03/21 07:06:36;;;;;;;36.20;22.97;;;;;;;;;;773993;179;911988;-68
2024/03/21 07:09:03;;;;;;;33.90;20.07;;;;;;;;;;769060;180;903103;-67
2024/03/21 07:11:28;;;;;;;35.50;20.77;;;;;;;;;;773023;179;902310;-68
2024/03/21 07:13:57;;;;;;;33.08;19.17;;;;;;;;;;775485;178;919238;-68
2024/03/21 07:16:19;;;;;;;34.57;19.27;;;;;;;;;;776048;180;919428;-67
2024/03/21 07:18:45;;;;;;;34.77;19.67;;;;;;;;;;772335;180;915802;-67
2024/03/21 07:21:12;;;;;;;37.27;19.73;;;;;;;;;;771955;178;919191;-68
2024/03/21 07:23:37;;;;;;;34.73;22.23;;;;;;;;;;776645;178;920756;-68
2024/03/21 07:26:03;;;;;;;30.67;21.07;;;;;;;;;;772693;178;917891;-68
2024/03/21 07:28:29;;;;;;;34.33;19.75;;;;;;;;;;772676;180;912164;-68
2024/03/21 07:30:55;;;;;;;32.40;20.53;;;;;;;;;;779614;177;913650;-68
2024/03/21 07:33:20;;;;;;;36.37;19.83;;;;;;;;;;771041;180;923595;-68
2024/03/21 07:35:52;;;;;;;32.73;21.30;;;;;;;;;;774814;178;914506;-68
2024/03/21 07:38:18;;;;;;;29.20;18.70;;;;;;;;;;778373;178;849045;-68
2024/03/21 07:40:44;;;;;;;29.60;18.43;;;;;;;;;;777475;178;817392;-68
2024/03/21 07:43:10;;;;;;;31.60;19.10;;;;;;;;;;777646;177;845242;-68
2024/03/21 07:45:35;;;;;;;31.90;17.83;;;;;;;;;;775765;178;815452;-68
2024/03/21 07:48:01;;;;;;;29.90;18.73;;;;;;;;;;778333;180;815837;-68
2024/03/21 07:50:28;;;;;;;27.03;16.20;;;;;;;;;;774575;180;919031;-68
2024/03/21 07:52:53;;;;;;;33.88;20.50;;;;;;;;;;774354;180;841266;-68
2024/03/21 07:55:19;;;;;;;30.37;18.27;;;;;;;;;;778765;178;912861;-69
2024/03/21 07:57:45;;;;;;;32.80;20.00;;;;;;;;;;773986;180;943508;-68
2024/03/21 08:00:11;;;;;;;29.77;19.00;;;;;;;;;;773600;180;918606;-68
2024/03/21 08:02:37;;;;;;;30.80;19.70;;;;;;;;;;779774;180;819815;-69
2024/03/21 08:05:03;;;;;;;40.50;19.60;;;;;;;;;;773708;179;917356;-69
2024/03/21 08:07:28;;;;;;;31.10;18.70;;;;;;;;;;773909;178;914841;-67
2024/03/21 08:09:54;;;;;;;32.30;19.83;;;;;;;;;;775068;177;850831;-68
2024/03/21 08:12:20;;;;;;;35.00;22.30;;;;;;;;;;777500;179;855186;-68
2024/03/21 08:14:46;;;;;;;42.43;21.73;;;;;;;;;;771700;178;917750;-68
2024/03/21 08:17:12;;;;;;;35.93;22.07;;;;;;;;;;778367;177;636152;-68
2024/03/21 08:19:38;;;;;;;37.13;21.83;;;;;;;;;;780475;177;633819;-69
2024/03/21 08:22:04;;;;;;;35.90;21.20;;;;;;;;;;779437;177;623908;-69
2024/03/21 08:24:29;;;;;;;37.03;22.00;;;;;;;;;;780108;177;630297;-69
2024/03/21 08:26:59;;;;;;;36.07;21.03;;;;;;;;;;779980;180;918597;-69
2024/03/21 08:29:21;;;;;;;40.23;21.90;;;;;;;;;;773227;179;918670;-69
2024/03/21 08:31:47;;;;;;;31.83;20.47;;;;;;;;;;777170;177;634356;-69
2024/03/21 08:34:13;;;;;;;36.77;21.90;;;;;;;;;;781831;179;619824;-69
2024/03/21 08:36:39;;;;;;;42.17;23.50;;;;;;;;;;778673;177;633174;-69
2024/03/21 08:39:05;;;;;;;39.50;23.50;;;;;;;;;;776763;178;633920;-69
2024/03/21 08:41:31;;;;;;;40.20;23.20;;;;;;;;;;777542;178;626528;-69
2024/03/21 08:43:57;;;;;;;34.83;20.53;;;;;;;;;;783643;178;622868;-69
2024/03/21 08:46:22;;;;;;;33.67;19.40;;;;;;;;;;775563;179;928340;-68
2024/03/21 08:48:48;;;;;;;32.70;18.62;;;;;;;;;;772757;179;918121;-69
2024/03/21 08:51:14;;;;;;;47.50;21.77;;;;;;;;;;779430;179;919077;-69
2024/03/21 08:53:40;;;;;;;35.00;21.20;;;;;;;;;;772576;177;918570;-69
2024/03/21 08:56:06;;;;;;;38.03;20.20;;;;;;;;;;775561;178;925449;-69
2024/03/21 08:58:32;;;;;;;33.33;22.27;;;;;;;;;;780379;179;861022;-69
2024/03/21 09:00:57;;;;;;;41.93;21.27;;;;;;;;;;773935;180;847640;-70
2024/03/21 09:03:23;;;;;;;32.17;21.77;;;;;;;;;;771028;180;918812;-69
2024/03/21 09:05:49;;;;;;;38.27;23.13;;;;;;;;;;778517;180;905018;-68
2024/03/21 09:08:15;;;;;;;35.07;21.63;;;;;;;;;;776204;179;867358;-68
2024/03/21 09:10:41;;;;;;;39.17;24.10;;;;;;;;;;774095;177;921078;-69
2024/03/21 09:13:07;;;;;;;45.88;25.00;;;;;;;;;;775362;177;932288;-70
2024/03/21 09:15:33;;;;;;;44.50;25.00;;;;;;;;;;773969;180;710173;-68
2024/03/21 09:17:58;;;;;;;42.63;24.93;;;;;;;;;;772639;178;927232;-69
2024/03/21 09:20:25;;;;;;;39.50;24.80;;;;;;;;;;773150;177;815595;-67
2024/03/21 09:22:51;;;;;;;40.40;26.43;;;;;;;;;;763356;180;919558;-68
2024/03/21 09:25:16;;;;;;;47.00;27.20;;;;;;;;;;776138;177;819155;-69
2024/03/21 09:27:42;;;;;;;43.23;26.80;;;;;;;;;;778030;177;917722;-69
2024/03/21 09:30:08;;;;;;;45.77;26.27;;;;;;;;;;763113;181;917163;-69
2024/03/21 09:32:34;;;;;;;39.73;23.67;;;;;;;;;;755770;184;918155;-68
2024/03/21 09:35:00;;;;;;;48.47;28.30;;;;;;;;;;761151;180;918656;-68
2024/03/21 09:37:26;;;;;;;47.10;28.60;;;;;;;;;;779252;179;917755;-68
2024/03/21 09:39:52;;;;;;;48.17;28.03;;;;;;;;;;774586;177;917436;-69
2024/03/21 09:42:18;;;;;;;51.83;29.20;;;;;;;;;;774477;177;918672;-68
2024/03/21 09:44:45;;;;;;;42.63;25.63;;;;;;;;;;776084;181;815879;-70
2024/03/21 09:47:10;;;;;;;46.93;25.53;;;;;;;;;;773419;177;834230;-69
2024/03/21 09:49:36;;;;;;;48.07;27.40;;;;;;;;;;774377;177;914838;-69
2024/03/21 09:52:02;;;;;;;44.40;25.47;;;;;;;;;;772863;180;918906;-70
2024/03/21 09:54:30;;;;;;;40.27;24.00;;;;;;;;;;780702;177;819431;-70
2024/03/21 09:56:54;;;;;;;42.10;24.50;;;;;;;;;;774743;178;713657;-70
2024/03/21 09:59:19;;;;;;;39.60;21.63;;;;;;;;;;774299;178;919206;-70
2024/03/21 10:01:46;;;;;;;38.57;19.80;;;;;;;;;;781145;176;816793;-69
2024/03/21 10:04:11;;;;;;;37.53;19.80;;;;;;;;;;774228;178;919058;-69
2024/03/21 10:06:42;;;;;;;31.30;18.47;;;;;;;;;;774054;180;819209;-68
2024/03/21 10:09:08;;;;;;;30.90;18.87;;;;;;;;;;776107;180;894646;-69
2024/03/21 10:11:33;;;;;;;31.07;19.17;;;;;;;;;;776243;177;765305;-68
2024/03/21 10:14:00;;;;;;;31.27;18.70;;;;;;;;;;776098;178;918877;-69
2024/03/21 10:16:26;;;;;;;31.93;19.73;;;;;;;;;;775254;180;823216;-70
2024/03/21 10:18:51;;;;;;;36.93;21.57;;;;;;;;;;778297;179;910354;-69
2024/03/21 10:21:19;;;;;;;33.13;20.43;;;;;;;;;;774620;178;919082;-69
2024/03/21 10:23:43;;;;;;;28.23;16.95;;;;;;;;;;771509;180;920940;-70
2024/03/21 10:26:13;;;;;;;32.90;20.50;;;;;;;;;;777348;180;917161;-70
2024/03/21 10:28:38;;;;;;;32.17;19.80;;;;;;;;;;776048;177;917094;-70
2024/03/21 10:31:04;;;;;;;27.77;18.70;;;;;;;;;;775131;180;924440;-70
2024/03/21 10:33:30;;;;;;;35.17;17.87;;;;;;;;;;779659;180;790724;-70
2024/03/21 10:35:56;;;;;;;32.03;17.50;;;;;;;;;;773377;178;816426;-70
2024/03/21 10:38:21;;;;;;;29.73;16.85;;;;;;;;;;775121;177;921254;-69
2024/03/21 10:40:47;;;;;;;29.10;17.53;;;;;;;;;;774032;177;808285;-70
2024/03/21 10:43:13;;;;;;;28.50;16.87;;;;;;;;;;780676;180;935828;-70
2024/03/21 10:45:39;;;;;;;30.52;16.62;;;;;;;;;;772624;181;913475;-70
2024/03/21 10:48:06;;;;;;;28.87;16.77;;;;;;;;;;776371;177;818838;-69
2024/03/21 10:50:31;;;;;;;28.30;15.80;;;;;;;;;;781753;177;848091;-69
2024/03/21 10:52:57;;;;;;;28.62;17.85;;;;;;;;;;774503;177;739094;-70
2024/03/21 10:55:22;;;;;;;31.75;17.42;;;;;;;;;;774371;179;914878;-70
2024/03/21 10:57:50;;;;;;;26.20;15.87;;;;;;;;;;780956;177;625498;-70
2024/03/21 11:00:17;;;;;;;29.60;17.97;;;;;;;;;;775047;177;765848;-69
2024/03/21 11:02:42;;;;;;;25.13;18.53;;;;;;;;;;772563;178;815982;-70
2024/03/21 11:05:09;;;;;;;27.80;16.97;;;;;;;;;;778424;181;907455;-69
2024/03/21 11:07:35;;;;;;;30.10;16.97;;;;;;;;;;779149;180;756178;-69
2024/03/21 11:10:01;;;;;;;26.93;14.97;;;;;;;;;;772658;178;810854;-70
2024/03/21 11:12:27;;;;;;;27.10;16.40;;;;;;;;;;774651;180;798897;-70
2024/03/21 11:14:52;;;;;;;27.37;16.67;;;;;;;;;;783123;179;715073;-69
2024/03/21 11:17:19;;;;;;;26.03;15.63;;;;;;;;;;777609;179;807896;-69
2024/03/21 11:19:44;;;;;;;22.40;14.50;;;;;;;;;;774933;177;818915;-70
2024/03/21 11:22:10;;;;;;;24.97;15.60;;;;;;;;;;780223;180;809315;-70
2024/03/21 11:24:36;;;;;;;26.03;16.00;;;;;;;;;;775212;177;879451;-69
2024/03/21 11:27:02;;;;;;;26.00;15.77;;;;;;;;;;775812;177;816117;-70
2024/03/21 11:29:27;;;;;;;22.87;15.17;;;;;;;;;;778806;177;909343;-70
2024/03/21 11:31:53;;;;;;;30.70;17.50;;;;;;;;;;772069;180;939693;-69
2024/03/21 11:34:19;;;;;;;28.62;16.50;;;;;;;;;;774185;177;911908;-70
2024/03/21 11:36:46;;;;;;;22.80;15.93;;;;;;;;;;776069;178;884380;-70
2024/03/21 11:39:12;;;;;;;28.63;16.20;;;;;;;;;;772681;178;930389;-69
2024/03/21 11:41:38;;;;;;;32.50;16.10;;;;;;;;;;767590;180;919177;-69
2024/03/21 11:44:04;;;;;;;28.27;17.63;;;;;;;;;;773324;180;919483;-70
2024/03/21 11:46:30;;;;;;;26.60;15.93;;;;;;;;;;779120;178;918336;-69
2024/03/21 11:49:09;;;;;;;26.63;16.67;;;;;;;;;;776345;177;818340;-71
2024/03/21 11:51:33;;;;;;;27.23;16.90;;;;;;;;;;773127;180;919405;-71
2024/03/21 11:54:00;;;;;;;29.37;17.37;;;;;;;;;;772772;181;916938;-70
2024/03/21 11:56:26;;;;;;;32.00;18.60;;;;;;;;;;777288;178;913345;-71
2024/03/21 11:58:51;;;;;;;31.40;18.30;;;;;;;;;;774281;177;868875;-71
2024/03/21 12:01:17;;;;;;;29.33;16.02;;;;;;;;;;773542;177;916479;-69
2024/03/21 12:03:43;;;;;;;27.27;15.20;;;;;;;;;;777899;180;797366;-71
2024/03/21 12:06:09;;;;;;;26.80;15.63;;;;;;;;;;772385;178;919083;-72
2024/03/21 12:08:35;;;;;;;27.95;17.17;;;;;;;;;;774473;177;918125;-70
2024/03/21 12:11:01;;;;;;;26.10;15.90;;;;;;;;;;779825;178;817744;-72
2024/03/21 12:13:27;;;;;;;26.23;15.87;;;;;;;;;;775846;180;920956;-73
2024/03/21 12:15:52;;;;;;;25.50;15.97;;;;;;;;;;776450;177;922928;-71
2024/03/21 12:18:21;;;;;;;29.97;16.27;;;;;;;;;;776851;180;816694;-71
2024/03/21 12:20:48;;;;;;;27.97;16.70;;;;;;;;;;777610;180;915119;-71
2024/03/21 12:23:14;;;;;;;31.57;17.47;;;;;;;;;;775755;178;901085;-71
2024/03/21 12:25:39;;;;;;;29.00;16.97;;;;;;;;;;775061;180;816566;-72
2024/03/21 12:28:05;;;;;;;31.67;16.00;;;;;;;;;;780977;176;917052;-72
2024/03/21 12:30:32;;;;;;;26.10;16.70;;;;;;;;;;774841;178;855656;-72
2024/03/21 12:32:57;;;;;;;27.33;16.33;;;;;;;;;;773118;178;816728;-71
2024/03/21 12:35:24;;;;;;;29.43;18.00;;;;;;;;;;779970;179;794643;-72
2024/03/21 12:37:50;;;;;;;26.10;15.10;;;;;;;;;;774470;177;817102;-72
2024/03/21 12:40:14;;;;;;;24.53;15.70;;;;;;;;;;775889;177;917377;-71
2024/03/21 12:42:40;;;;;;;31.83;16.30;;;;;;;;;;781947;179;712550;-71
2024/03/21 12:45:06;;;;;;;25.17;15.27;;;;;;;;;;773007;178;813840;-70
2024/03/21 12:47:34;;;;;;;26.27;14.57;;;;;;;;;;773959;178;828706;-71
2024/03/21 12:49:58;;;;;;;23.57;13.70;;;;;;;;;;773889;178;919104;-71
2024/03/21 12:52:24;;;;;;;38.00;17.20;;;;;;;;;;775697;178;892677;-70
2024/03/21 12:54:50;;;;;;;26.03;16.10;;;;;;;;;;773508;178;775244;-71
2024/03/21 12:57:16;;;;;;;27.20;15.77;;;;;;;;;;775559;180;921327;-71
2024/03/21 12:59:42;;;;;;;26.53;15.03;;;;;;;;;;779313;180;916267;-71
2024/03/21 13:02:07;;;;;;;25.27;15.30;;;;;;;;;;772464;181;922442;-72
2024/03/21 13:04:33;;;;;;;33.60;16.95;;;;;;;;;;776802;177;806797;-71
2024/03/21 13:06:59;;;;;;;27.33;15.73;;;;;;;;;;778339;180;831736;-72
2024/03/21 13:09:25;;;;;;;23.20;14.80;;;;;;;;;;775886;181;818825;-71
2024/03/21 13:11:51;;;;;;;20.70;11.90;;;;;;;;;;774830;178;822861;-72
2024/03/21 13:14:16;;;;;;;23.07;13.30;;;;;;;;;;777446;177;918783;-72
2024/03/21 13:16:42;;;;;;;24.30;13.33;;;;;;;;;;772719;177;816128;-70
2024/03/21 13:19:08;;;;;;;26.37;13.57;;;;;;;;;;772765;178;865562;-72
2024/03/21 13:21:34;;;;;;;32.73;16.30;;;;;;;;;;776405;179;815407;-69
2024/03/21 13:24:00;;;;;;;31.73;11.97;;;;;;;;;;772193;180;915829;-71
2024/03/21 13:26:26;;;;;;;26.37;13.17;;;;;;;;;;775201;178;816042;-70
2024/03/21 13:28:51;;;;;;;20.77;11.77;;;;;;;;;;773352;178;927906;-72
2024/03/21 13:31:17;;;;;;;24.70;14.40;;;;;;;;;;777049;178;814033;-72
2024/03/21 13:33:43;;;;;;;25.48;12.70;;;;;;;;;;772720;178;912334;-71
2024/03/21 13:36:09;;;;;;;24.30;13.90;;;;;;;;;;778252;178;823869;-72
2024/03/21 13:38:35;;;;;;;22.47;12.10;;;;;;;;;;780337;177;817543;-70
2024/03/21 13:41:00;;;;;;;25.77;13.20;;;;;;;;;;778032;177;816087;-71
2024/03/21 13:43:26;;;;;;;20.73;11.30;;;;;;;;;;773398;180;813276;-70
2024/03/21 13:45:53;;;;;;;20.03;11.70;;;;;;;;;;781067;178;711097;-73
2024/03/21 13:48:18;;;;;;;24.93;13.37;;;;;;;;;;774810;177;922406;-72
2024/03/21 13:50:44;;;;;;;21.55;11.52;;;;;;;;;;777639;177;638770;-72
2024/03/21 13:53:10;;;;;;;19.47;11.30;;;;;;;;;;782496;180;613353;-71
2024/03/21 13:55:36;;;;;;;23.95;13.27;;;;;;;;;;780005;179;617773;-72
2024/03/21 13:58:01;;;;;;;21.42;11.20;;;;;;;;;;772712;178;816536;-71
2024/03/21 14:00:30;;;;;;;22.63;12.40;;;;;;;;;;779379;180;633854;-72